Time;durP1;ratioP1;P1;durP2;ratioP2;P2;SDS_P1;SDS_P2;PMS_P1;PMS_P2;Temp;Humidity;BMP_temperature;BMP_pressure;BME280_temperature;BME280_humidity;BME280_pressure;Samples;Min_cycle;Max_cycle;Signal;HPM_P1;HPM_P2
2022/06/08 00:01:42;;;;;;;;;;;20.60;67.70;;;;;;4916882;29;19915;-62
2022/06/08 00:04:10;;;;;;;;;;;20.70;70.10;;;;;;4917435;29;19927;-62
2022/06/08 00:06:36;;;;;;;;;;;20.60;70.70;;;;;;4900196;29;19959;-62
2022/06/08 00:09:02;;;;;;;;;;;20.70;68.70;;;;;;4917355;29;20372;-63
2022/06/08 00:11:27;;;;;;;;;;;20.70;70.30;;;;;;4917220;29;20371;-63
2022/06/08 00:13:53;;;;;;;;;;;20.60;70.50;;;;;;4917497;29;19917;-61
2022/06/08 00:16:18;;;;;;;;;;;20.60;69.40;;;;;;4917073;29;19919;-63
2022/06/08 00:18:45;;;;;;;;;;;20.50;70.00;;;;;;4917192;29;19915;-64
2022/06/08 00:21:12;;;;;;;;;;;20.30;71.10;;;;;;4917236;29;19911;-63
2022/06/08 00:23:37;;;;;;;;;;;20.40;68.30;;;;;;4917069;29;19915;-63
2022/06/08 00:26:03;;;;;;;;;;;20.40;68.50;;;;;;4917134;29;19962;-62
2022/06/08 00:28:30;;;;;;;;;;;20.50;70.10;;;;;;4917174;29;19929;-63
2022/06/08 00:30:55;;;;;;;;;;;20.30;70.50;;;;;;4916874;29;19997;-62
2022/06/08 00:33:21;;;;;;;;;;;20.20;70.80;;;;;;4917022;29;19915;-62
2022/06/08 00:35:46;;;;;;;;;;;20.40;70.30;;;;;;4917214;29;19911;-64
2022/06/08 00:38:12;;;;;;;;;;;20.20;70.20;;;;;;4900157;29;20363;-64
2022/06/08 00:40:47;;;;;;;;;;;20.50;69.70;;;;;;4917019;29;20291;-63
2022/06/08 00:43:13;;;;;;;;;;;20.50;69.50;;;;;;4916930;29;20386;-64
2022/06/08 00:45:38;;;;;;;;;;;20.50;68.70;;;;;;4916962;29;19911;-62
2022/06/08 00:48:06;;;;;;;;;;;20.60;68.80;;;;;;4917074;29;20025;-65
2022/06/08 00:50:35;;;;;;;;;;;20.80;67.90;;;;;;4916889;29;20363;-63
2022/06/08 00:53:02;;;;;;;;;;;20.80;69.00;;;;;;4917007;29;20419;-64
2022/06/08 00:55:30;;;;;;;;;;;20.20;69.80;;;;;;4917071;29;19963;-63
2022/06/08 00:57:59;;;;;;;;;;;20.40;70.20;;;;;;4916778;29;19911;-64
2022/06/08 01:00:27;;;;;;;;;;;20.50;69.90;;;;;;4899834;29;19911;-63
2022/06/08 01:02:53;;;;;;;;;;;20.20;70.70;;;;;;4917176;29;19963;-63
2022/06/08 01:05:21;;;;;;;;;;;20.10;69.50;;;;;;4916774;29;19915;-64
2022/06/08 01:07:48;;;;;;;;;;;20.30;70.00;;;;;;4916773;29;19967;-63
2022/06/08 01:10:15;;;;;;;;;;;20.30;70.90;;;;;;4916725;29;19966;-63
2022/06/08 01:12:41;;;;;;;;;;;20.30;71.60;;;;;;4917067;29;19917;-63
2022/06/08 01:15:07;;;;;;;;;;;19.90;73.00;;;;;;4920141;29;19911;-63
2022/06/08 01:17:33;;;;;;;;;;;19.70;73.60;;;;;;4920249;29;19911;-63
2022/06/08 01:19:58;;;;;;;;;;;19.70;73.70;;;;;;4919882;29;20389;-63
2022/06/08 01:22:24;;;;;;;;;;;19.90;73.30;;;;;;4920359;29;20010;-63
2022/06/08 01:24:51;;;;;;;;;;;20.10;72.60;;;;;;4920555;29;19918;-63
2022/06/08 01:27:21;;;;;;;;;;;20.10;72.60;;;;;;4919759;29;19919;-63
2022/06/08 01:30:05;;;;;;;;;;;20.20;72.00;;;;;;4919651;29;20426;-62
2022/06/08 01:32:36;;;;;;;;;;;20.20;71.70;;;;;;4919899;29;19918;-63
2022/06/08 01:35:11;;;;;;;;;;;20.00;72.40;;;;;;4919828;29;19915;-63
2022/06/08 01:37:48;;;;;;;;;;;20.00;71.60;;;;;;4919682;29;19916;-63
2022/06/08 01:40:19;;;;;;;;;;;19.80;73.30;;;;;;4919613;29;20050;-63
2022/06/08 01:42:57;;;;;;;;;;;19.80;73.60;;;;;;4919848;29;19917;-63
2022/06/08 01:45:29;;;;;;;;;;;19.90;73.50;;;;;;4919836;29;19918;-63
2022/06/08 01:48:07;;;;;;;;;;;19.90;72.30;;;;;;4919780;29;19919;-64
2022/06/08 01:50:38;;;;;;;;;;;19.90;73.50;;;;;;4919747;29;19918;-64
2022/06/08 01:53:26;;;;;;;;;;;19.60;74.00;;;;;;4919577;29;19941;-62
2022/06/08 01:55:56;;;;;;;;;;;19.60;73.40;;;;;;4875479;29;19918;-63
2022/06/08 01:58:22;;;;;;;;;;;19.80;73.10;;;;;;4902285;29;19911;-62
2022/06/08 02:00:51;;;;;;;;;;;19.60;72.90;;;;;;4919234;29;19911;-62
2022/06/08 02:03:25;;;;;;;;;;;19.40;74.00;;;;;;4919416;29;19983;-63
2022/06/08 02:05:54;;;;;;;;;;;19.20;74.30;;;;;;4919359;29;19911;-64
2022/06/08 02:08:25;;;;;;;;;;;19.40;74.70;;;;;;4919057;29;19974;-62
2022/06/08 02:10:51;;;;;;;;;;;19.40;74.10;;;;;;4919094;29;19915;-62
2022/06/08 02:13:23;;;;;;;;;;;19.40;74.60;;;;;;4919533;29;20262;-63
2022/06/08 02:15:51;;;;;;;;;;;19.50;73.80;;;;;;4918986;29;19919;-63
2022/06/08 02:18:28;;;;;;;;;;;19.60;74.70;;;;;;4919122;29;19915;-63
2022/06/08 02:20:57;;;;;;;;;;;19.40;74.60;;;;;;4919169;29;19959;-63
2022/06/08 02:23:23;;;;;;;;;;;19.40;76.10;;;;;;4918471;29;19919;-64
2022/06/08 02:25:50;;;;;;;;;;;19.60;75.90;;;;;;4919022;29;19915;-64
2022/06/08 02:28:19;;;;;;;;;;;19.70;74.20;;;;;;4918766;29;19926;-64
2022/06/08 02:30:49;;;;;;;;;;;19.80;73.40;;;;;;4918444;29;19927;-63
2022/06/08 02:36:11;;;;;;;;;;;20.00;72.60;;;;;;4919149;29;19953;-63
2022/06/08 02:38:39;;;;;;;;;;;20.10;71.80;;;;;;4918734;29;20030;-63
2022/06/08 02:41:07;;;;;;;;;;;20.10;71.50;;;;;;4918480;29;19911;-63
2022/06/08 02:43:36;;;;;;;;;;;20.10;71.20;;;;;;4918381;29;19939;-63
2022/06/08 02:46:11;;;;;;;;;;;19.90;70.30;;;;;;4918577;29;19943;-63
2022/06/08 02:48:37;;;;;;;;;;;20.00;71.00;;;;;;4918537;29;20355;-63
2022/06/08 02:51:04;;;;;;;;;;;20.00;71.20;;;;;;4918904;29;19911;-64
2022/06/08 02:53:30;;;;;;;;;;;19.90;71.80;;;;;;4919030;29;20021;-63
2022/06/08 02:56:08;;;;;;;;;;;19.90;70.80;;;;;;4918348;29;19912;-63
2022/06/08 02:58:46;;;;;;;;;;;19.80;71.50;;;;;;4918261;29;19911;-63
2022/06/08 03:01:15;;;;;;;;;;;19.70;73.80;;;;;;4918215;29;19918;-61
2022/06/08 03:03:52;;;;;;;;;;;19.50;75.80;;;;;;4918097;29;19911;-62
2022/06/08 03:06:40;;;;;;;;;;;19.50;74.20;;;;;;4918415;29;20351;-62
2022/06/08 03:09:10;;;;;;;;;;;19.60;72.40;;;;;;4917843;29;19925;-62
2022/06/08 03:11:41;;;;;;;;;;;19.70;71.60;;;;;;4918196;29;20248;-62
2022/06/08 03:14:11;;;;;;;;;;;19.80;70.80;;;;;;4917999;29;19915;-64
2022/06/08 03:16:41;;;;;;;;;;;19.90;69.40;;;;;;4917793;29;19911;-62
2022/06/08 03:19:07;;;;;;;;;;;20.00;69.80;;;;;;4917926;29;19911;-63
2022/06/08 03:21:33;;;;;;;;;;;19.90;69.50;;;;;;4917750;29;19911;-62
2022/06/08 03:23:59;;;;;;;;;;;20.00;70.00;;;;;;4918021;29;19927;-64
2022/06/08 03:26:26;;;;;;;;;;;20.00;69.10;;;;;;4900673;29;19915;-63
2022/06/08 03:28:51;;;;;;;;;;;20.10;69.20;;;;;;4917520;29;20106;-63
2022/06/08 03:31:17;;;;;;;;;;;20.20;69.10;;;;;;4917778;29;19971;-63
2022/06/08 03:33:42;;;;;;;;;;;20.30;68.20;;;;;;4917918;29;19918;-64
2022/06/08 03:36:08;;;;;;;;;;;20.30;69.00;;;;;;4916854;29;19918;-63
2022/06/08 03:38:34;;;;;;;;;;;20.30;69.20;;;;;;4917535;29;19946;-64
2022/06/08 03:41:00;;;;;;;;;;;20.10;69.40;;;;;;4917578;29;19933;-61
2022/06/08 03:43:26;;;;;;;;;;;20.30;67.70;;;;;;4917592;29;20352;-63
2022/06/08 03:45:53;;;;;;;;;;;20.10;67.90;;;;;;4917730;29;19967;-62
2022/06/08 03:48:19;;;;;;;;;;;20.10;67.00;;;;;;4917445;29;19927;-63
2022/06/08 03:50:44;;;;;;;;;;;20.20;67.70;;;;;;4917487;29;19915;-63
2022/06/08 03:53:12;;;;;;;;;;;20.20;67.20;;;;;;4917428;29;20359;-63
2022/06/08 03:55:39;;;;;;;;;;;19.90;66.80;;;;;;4917628;29;19915;-62
2022/06/08 03:58:04;;;;;;;;;;;20.10;67.70;;;;;;4917469;29;19934;-62
2022/06/08 04:00:30;;;;;;;;;;;20.10;67.60;;;;;;4917371;29;19912;-63
2022/06/08 04:02:56;;;;;;;;;;;20.20;66.90;;;;;;4917245;29;20342;-61
2022/06/08 04:05:21;;;;;;;;;;;20.30;67.30;;;;;;4917303;29;19912;-63
2022/06/08 04:07:47;;;;;;;;;;;20.10;66.40;;;;;;4917406;29;20377;-62
2022/06/08 04:10:13;;;;;;;;;;;20.00;69.40;;;;;;4917291;29;19915;-63
2022/06/08 04:12:39;;;;;;;;;;;19.80;71.00;;;;;;4917372;29;19939;-63
2022/06/08 04:15:05;;;;;;;;;;;19.60;75.00;;;;;;4917303;29;19911;-61
2022/06/08 04:17:31;;;;;;;;;;;19.30;75.40;;;;;;4917398;29;19912;-62
2022/06/08 04:19:56;;;;;;;;;;;19.50;76.60;;;;;;4916990;29;19933;-63
2022/06/08 04:22:23;;;;;;;;;;;19.70;75.60;;;;;;4917223;29;20249;-62
2022/06/08 04:24:48;;;;;;;;;;;19.90;70.30;;;;;;4900154;29;19970;-63
2022/06/08 04:27:14;;;;;;;;;;;20.10;67.10;;;;;;4917090;29;19923;-62
2022/06/08 04:29:40;;;;;;;;;;;20.20;70.80;;;;;;4916973;29;19966;-63
2022/06/08 04:32:07;;;;;;;;;;;20.10;72.90;;;;;;4900228;29;19926;-62
2022/06/08 04:34:33;;;;;;;;;;;20.20;72.00;;;;;;4917256;29;19911;-62
2022/06/08 04:36:59;;;;;;;;;;;20.00;71.20;;;;;;4917457;29;20363;-63
2022/06/08 04:39:24;;;;;;;;;;;20.00;69.10;;;;;;4917222;29;19918;-63
2022/06/08 04:41:50;;;;;;;;;;;19.80;67.90;;;;;;4917367;29;19911;-62
2022/06/08 04:44:16;;;;;;;;;;;19.80;69.20;;;;;;4917200;29;20367;-63
2022/06/08 04:46:41;;;;;;;;;;;19.80;65.90;;;;;;4917562;29;19918;-63
2022/06/08 04:49:08;;;;;;;;;;;20.00;66.00;;;;;;4920639;29;20383;-63
2022/06/08 04:51:34;;;;;;;;;;;20.10;67.10;;;;;;4920665;29;19911;-62
2022/06/08 04:53:59;;;;;;;;;;;20.10;66.20;;;;;;4903531;29;19919;-62
2022/06/08 04:56:25;;;;;;;;;;;20.00;66.10;;;;;;4920486;29;20366;-63
2022/06/08 04:58:53;;;;;;;;;;;19.80;66.10;;;;;;4920482;29;19911;-63
2022/06/08 05:01:18;;;;;;;;;;;20.00;67.50;;;;;;4920732;29;19990;-63
2022/06/08 05:03:44;;;;;;;;;;;20.10;67.60;;;;;;4920910;29;20006;-64
2022/06/08 05:06:09;;;;;;;;;;;20.20;65.60;;;;;;4920343;29;19911;-63
2022/06/08 05:08:35;;;;;;;;;;;20.10;66.40;;;;;;4920113;29;19924;-63
2022/06/08 05:11:04;;;;;;;;;;;19.80;65.20;;;;;;4920277;29;19911;-63
2022/06/08 05:13:30;;;;;;;;;;;19.90;66.90;;;;;;4920330;29;19911;-63
2022/06/08 05:15:55;;;;;;;;;;;19.90;66.70;;;;;;4920227;29;19917;-63
2022/06/08 05:18:22;;;;;;;;;;;20.00;65.80;;;;;;4919966;29;19927;-63
2022/06/08 05:20:48;;;;;;;;;;;20.20;64.30;;;;;;4920495;29;19915;-63
2022/06/08 05:23:18;;;;;;;;;;;20.30;64.40;;;;;;4920100;29;19946;-63
2022/06/08 05:25:43;;;;;;;;;;;20.00;64.00;;;;;;4903052;29;19911;-63
2022/06/08 05:28:09;;;;;;;;;;;20.10;65.00;;;;;;4919937;29;19967;-63
2022/06/08 05:30:36;;;;;;;;;;;19.80;64.80;;;;;;4919681;29;20018;-62
2022/06/08 05:33:02;;;;;;;;;;;20.00;65.60;;;;;;4919687;29;19994;-62
2022/06/08 05:35:29;;;;;;;;;;;19.90;64.70;;;;;;4919871;29;19920;-62
2022/06/08 05:37:54;;;;;;;;;;;19.80;65.20;;;;;;4919643;29;19911;-63
2022/06/08 05:40:21;;;;;;;;;;;20.00;64.30;;;;;;4919815;29;19911;-64
2022/06/08 05:42:46;;;;;;;;;;;20.00;64.90;;;;;;4919855;29;19911;-62
2022/06/08 05:45:21;;;;;;;;;;;20.10;65.10;;;;;;4919769;29;19911;-62
2022/06/08 05:47:46;;;;;;;;;;;20.20;64.80;;;;;;4919742;29;19979;-62
2022/06/08 05:50:12;;;;;;;;;;;20.20;65.70;;;;;;4919340;29;19911;-63
2022/06/08 05:52:37;;;;;;;;;;;20.20;66.50;;;;;;4919386;29;20326;-63
2022/06/08 05:55:04;;;;;;;;;;;20.20;66.60;;;;;;4920148;29;19975;-63
2022/06/08 05:57:29;;;;;;;;;;;20.30;66.90;;;;;;4920014;29;20283;-62
2022/06/08 05:59:55;;;;;;;;;;;20.40;65.90;;;;;;4919010;29;19911;-66
2022/06/08 06:02:20;;;;;;;;;;;20.40;66.50;;;;;;4919985;29;19919;-63
2022/06/08 06:04:46;;;;;;;;;;;20.30;67.20;;;;;;4920609;29;19912;-63
2022/06/08 06:07:12;;;;;;;;;;;20.40;67.00;;;;;;4920566;29;20009;-68
2022/06/08 06:09:38;;;;;;;;;;;20.20;67.50;;;;;;4920093;29;19915;-63
2022/06/08 06:12:04;;;;;;;;;;;20.10;67.60;;;;;;4903313;29;20006;-67
2022/06/08 06:14:29;;;;;;;;;;;20.00;68.10;;;;;;4919729;29;19998;-61
2022/06/08 06:16:55;;;;;;;;;;;20.00;68.40;;;;;;4919000;29;19978;-66
2022/06/08 06:19:21;;;;;;;;;;;19.80;68.70;;;;;;4919119;29;19959;-63
2022/06/08 06:21:46;;;;;;;;;;;19.80;69.50;;;;;;4919434;29;19911;-69
2022/06/08 06:24:12;;;;;;;;;;;19.80;69.70;;;;;;4918971;29;19918;-66
2022/06/08 06:26:37;;;;;;;;;;;19.70;69.40;;;;;;4918829;29;19915;-66
2022/06/08 06:29:03;;;;;;;;;;;19.80;68.90;;;;;;4918912;29;19952;-69
2022/06/08 06:31:33;;;;;;;;;;;19.80;68.20;;;;;;4918694;29;19950;-66
2022/06/08 06:33:59;;;;;;;;;;;19.80;68.50;;;;;;4918971;29;19911;-68
2022/06/08 06:36:25;;;;;;;;;;;19.90;68.30;;;;;;4918897;29;20010;-69
2022/06/08 06:38:50;;;;;;;;;;;20.10;67.60;;;;;;4919010;29;20407;-68
2022/06/08 06:41:16;;;;;;;;;;;20.10;66.80;;;;;;4918920;29;19911;-68
2022/06/08 06:43:42;;;;;;;;;;;20.30;67.90;;;;;;4918674;29;19911;-67
2022/06/08 06:46:11;;;;;;;;;;;20.30;66.80;;;;;;4918692;29;20402;-69
2022/06/08 06:48:36;;;;;;;;;;;20.50;66.00;;;;;;4918502;29;19919;-67
2022/06/08 06:51:03;;;;;;;;;;;20.60;65.90;;;;;;4918405;29;19911;-64
2022/06/08 06:53:29;;;;;;;;;;;20.70;66.40;;;;;;4918332;29;19917;-65
2022/06/08 06:55:55;;;;;;;;;;;20.80;65.70;;;;;;4915492;29;19915;-65
2022/06/08 06:58:20;;;;;;;;;;;21.00;64.40;;;;;;4909864;29;19950;-65
2022/06/08 07:00:46;;;;;;;;;;;21.10;65.30;;;;;;4898533;29;19915;-64
2022/06/08 07:03:12;;;;;;;;;;;21.20;63.70;;;;;;4908128;29;19986;-64
2022/06/08 07:05:38;;;;;;;;;;;21.30;63.60;;;;;;4909157;29;19951;-64
2022/06/08 07:08:04;;;;;;;;;;;21.40;63.20;;;;;;4907161;29;20403;-64
2022/06/08 07:10:29;;;;;;;;;;;21.30;63.40;;;;;;4907623;29;19997;-67
2022/06/08 07:12:55;;;;;;;;;;;21.50;62.90;;;;;;4908601;29;20309;-65
2022/06/08 07:15:21;;;;;;;;;;;21.60;62.00;;;;;;4907126;29;19912;-65
2022/06/08 07:17:46;;;;;;;;;;;21.70;62.10;;;;;;4899388;29;19911;-64
2022/06/08 07:20:13;;;;;;;;;;;21.80;61.40;;;;;;4908100;29;19912;-65
2022/06/08 07:22:38;;;;;;;;;;;22.00;60.30;;;;;;4897954;29;19922;-66
2022/06/08 07:25:05;;;;;;;;;;;22.20;59.60;;;;;;4909172;29;19911;-66
2022/06/08 07:27:30;;;;;;;;;;;22.40;59.00;;;;;;4898712;29;19923;-68
2022/06/08 07:29:56;;;;;;;;;;;22.60;57.80;;;;;;4907045;29;20367;-66
2022/06/08 07:32:21;;;;;;;;;;;22.70;58.00;;;;;;4909004;29;19926;-65
2022/06/08 07:34:47;;;;;;;;;;;22.80;56.80;;;;;;4898228;29;20434;-65
2022/06/08 07:37:12;;;;;;;;;;;23.10;56.00;;;;;;4913020;29;20001;-66
2022/06/08 07:39:38;;;;;;;;;;;23.40;55.90;;;;;;4917573;29;19911;-66
2022/06/08 07:42:04;;;;;;;;;;;23.60;55.30;;;;;;4917269;29;20283;-66
2022/06/08 07:44:29;;;;;;;;;;;23.80;55.10;;;;;;4917650;29;20013;-67
2022/06/08 07:46:55;;;;;;;;;;;23.90;55.10;;;;;;4917461;29;19911;-65
2022/06/08 07:49:37;;;;;;;;;;;24.00;54.60;;;;;;4926672;23;19895;-61
2022/06/08 07:52:05;;;;;;;;;;;24.10;53.80;;;;;;4878555;29;19962;-61
2022/06/08 07:54:30;;;;;;;;;;;24.20;53.50;;;;;;4879915;29;20006;-61
2022/06/08 07:56:56;;;;;;;;;;;24.40;53.40;;;;;;4880111;29;19948;-62
2022/06/08 07:59:24;;;;;;;;;;;24.40;53.40;;;;;;4879902;29;19940;-62
2022/06/08 08:01:50;;;;;;;;;;;24.60;53.40;;;;;;4879793;29;19915;-60
2022/06/08 08:04:16;;;;;;;;;;;24.60;53.20;;;;;;4879967;29;19919;-61
2022/06/08 08:06:41;;;;;;;;;;;24.60;53.10;;;;;;4879652;29;19912;-62
2022/06/08 08:09:13;;;;;;;;;;;24.50;53.00;;;;;;4879486;29;19926;-60
2022/06/08 08:11:39;;;;;;;;;;;24.50;53.40;;;;;;4879745;29;20360;-62
2022/06/08 08:14:05;;;;;;;;;;;24.20;53.10;;;;;;4879557;29;19911;-61
2022/06/08 08:16:31;;;;;;;;;;;24.10;54.00;;;;;;4879519;29;19940;-61
2022/06/08 08:18:57;;;;;;;;;;;24.10;53.40;;;;;;4879604;29;19919;-58
2022/06/08 08:21:24;;;;;;;;;;;23.90;53.80;;;;;;4885037;29;19912;-61
2022/06/08 08:23:50;;;;;;;;;;;23.90;54.60;;;;;;4892096;29;19922;-59
2022/06/08 08:26:16;;;;;;;;;;;23.70;54.60;;;;;;4876328;29;20018;-61
2022/06/08 08:28:41;;;;;;;;;;;23.70;55.10;;;;;;4890733;29;19924;-61
2022/06/08 08:31:07;;;;;;;;;;;23.50;55.00;;;;;;4901989;29;19959;-62
2022/06/08 08:33:32;;;;;;;;;;;23.40;55.50;;;;;;4901655;29;19911;-62
2022/06/08 08:35:58;;;;;;;;;;;23.40;56.00;;;;;;4901779;29;19930;-62
2022/06/08 08:38:23;;;;;;;;;;;23.60;55.70;;;;;;4901676;29;19973;-61
2022/06/08 08:40:51;;;;;;;;;;;23.70;55.90;;;;;;4902080;29;19919;-61
2022/06/08 08:43:20;;;;;;;;;;;23.70;55.50;;;;;;4901857;29;20331;-63
2022/06/08 08:46:05;;;;;;;;;;;23.80;56.10;;;;;;4901709;29;19912;-61
2022/06/08 08:48:51;;;;;;;;;;;23.80;54.60;;;;;;4901756;29;19971;-62
2022/06/08 08:51:19;;;;;;;;;;;23.90;55.30;;;;;;4901674;29;20423;-62
2022/06/08 08:53:45;;;;;;;;;;;24.00;56.00;;;;;;4901963;29;19911;-62
2022/06/08 08:56:17;;;;;;;;;;;24.10;54.10;;;;;;4901704;29;19911;-59
2022/06/08 08:58:44;;;;;;;;;;;24.20;54.30;;;;;;4901649;29;20003;-60
2022/06/08 09:01:16;;;;;;;;;;;24.20;54.50;;;;;;4901443;29;19963;-63
2022/06/08 09:03:56;;;;;;;;;;;24.40;53.60;;;;;;4901652;29;20006;-59
2022/06/08 09:06:23;;;;;;;;;;;24.70;53.10;;;;;;4901439;29;19912;-59
2022/06/08 09:08:50;;;;;;;;;;;24.80;52.60;;;;;;4900972;29;19924;-59
2022/06/08 09:11:22;;;;;;;;;;;24.80;52.70;;;;;;4901314;29;20014;-59
2022/06/08 09:14:00;;;;;;;;;;;24.60;51.90;;;;;;4900932;29;19918;-59
2022/06/08 09:16:35;;;;;;;;;;;24.60;51.80;;;;;;4901319;29;19919;-61
2022/06/08 09:19:20;;;;;;;;;;;24.70;52.40;;;;;;4901072;29;19938;-59
2022/06/08 09:21:47;;;;;;;;;;;24.80;51.10;;;;;;4901161;29;19951;-60
2022/06/08 09:24:21;;;;;;;;;;;25.00;50.70;;;;;;4900992;29;20002;-60
2022/06/08 09:26:47;;;;;;;;;;;25.20;50.70;;;;;;4901042;29;20424;-59
2022/06/08 09:29:13;;;;;;;;;;;25.30;49.80;;;;;;4900863;29;19920;-58
2022/06/08 09:31:39;;;;;;;;;;;25.40;50.10;;;;;;4900989;29;19917;-59
2022/06/08 09:34:11;;;;;;;;;;;25.30;48.60;;;;;;4899867;29;19918;-59
2022/06/08 09:36:36;;;;;;;;;;;25.20;47.00;;;;;;4901039;29;20002;-60
2022/06/08 09:39:02;;;;;;;;;;;25.20;46.50;;;;;;4901021;29;20379;-59
2022/06/08 09:41:32;;;;;;;;;;;25.20;47.60;;;;;;4900932;29;20279;-59
2022/06/08 09:44:15;;;;;;;;;;;25.40;48.80;;;;;;4900755;29;19957;-61
2022/06/08 09:52:23;;;;;;;;;;;25.30;47.60;;;;;;4900896;29;20328;-58
2022/06/08 09:54:49;;;;;;;;;;;25.20;47.90;;;;;;4900990;29;19938;-59
2022/06/08 09:57:26;;;;;;;;;;;25.10;48.40;;;;;;4900480;29;19959;-58
2022/06/08 10:00:01;;;;;;;;;;;25.10;48.30;;;;;;4900333;29;20340;-58
2022/06/08 10:02:44;;;;;;;;;;;25.20;47.70;;;;;;4900272;29;19915;-58
2022/06/08 10:05:19;;;;;;;;;;;25.20;47.90;;;;;;4900500;29;19912;-60
2022/06/08 10:08:09;;;;;;;;;;;25.30;47.50;;;;;;4900085;29;19924;-60
2022/06/08 10:10:44;;;;;;;;;;;25.30;45.60;;;;;;4900221;29;19912;-60
2022/06/08 10:13:16;;;;;;;;;;;25.20;47.20;;;;;;4900199;29;20151;-59
2022/06/08 10:15:43;;;;;;;;;;;25.30;47.00;;;;;;4900085;29;19919;-59
2022/06/08 10:18:11;;;;;;;;;;;25.40;46.00;;;;;;4899858;29;19911;-59
2022/06/08 10:20:59;;;;;;;;;;;25.40;46.10;;;;;;4900194;29;20002;-59
2022/06/08 10:23:34;;;;;;;;;;;25.50;46.40;;;;;;4900222;29;19937;-63
2022/06/08 10:26:08;;;;;;;;;;;25.30;44.90;;;;;;4900167;29;19916;-62
2022/06/08 10:28:44;;;;;;;;;;;25.40;46.40;;;;;;4900014;29;19927;-62
2022/06/08 10:31:15;;;;;;;;;;;25.40;45.30;;;;;;4899822;29;19918;-63
2022/06/08 10:33:47;;;;;;;;;;;25.30;45.80;;;;;;4899800;29;19922;-62
2022/06/08 10:36:13;;;;;;;;;;;25.30;47.40;;;;;;4882884;29;20283;-60
2022/06/08 10:38:43;;;;;;;;;;;25.30;47.70;;;;;;4899626;29;19927;-62
2022/06/08 10:43:58;;;;;;;;;;;25.30;46.70;;;;;;4899652;29;20458;-61
2022/06/08 10:46:42;;;;;;;;;;;25.30;46.60;;;;;;4899410;29;19953;-62
2022/06/08 10:49:18;;;;;;;;;;;25.30;46.50;;;;;;4899446;29;19924;-60
2022/06/08 10:51:43;;;;;;;;;;;25.30;47.80;;;;;;4899688;29;19934;-61
2022/06/08 10:57:49;;;;;;;;;;;25.40;47.20;;;;;;4899423;29;19966;-66
2022/06/08 11:00:18;;;;;;;;;;;25.40;46.80;;;;;;4823448;29;20464;-59
2022/06/08 11:02:47;;;;;;;;;;;25.40;47.30;;;;;;4885053;29;19912;-60
2022/06/08 11:05:18;;;;;;;;;;;25.40;45.50;;;;;;4899336;29;19955;-60
2022/06/08 11:08:06;;;;;;;;;;;25.40;46.20;;;;;;4899017;29;20430;-60
2022/06/08 11:10:44;;;;;;;;;;;25.30;46.50;;;;;;4887578;29;19952;-65
2022/06/08 11:13:24;;;;;;;;;;;25.40;48.00;;;;;;4899551;29;19991;-66
2022/06/08 11:15:53;;;;;;;;;;;25.40;47.70;;;;;;4899254;29;19965;-61
2022/06/08 11:18:19;;;;;;;;;;;25.50;46.10;;;;;;4898980;29;19918;-59
2022/06/08 11:20:54;;;;;;;;;;;25.50;45.40;;;;;;4898677;29;19912;-62
2022/06/08 11:23:20;;;;;;;;;;;25.50;47.40;;;;;;4887067;29;20615;-62
2022/06/08 11:26:04;;;;;;;;;;;25.50;47.40;;;;;;4878495;29;19912;-65
2022/06/08 11:28:30;;;;;;;;;;;25.50;47.40;;;;;;4879039;29;19920;-63
2022/06/08 11:30:58;;;;;;;;;;;25.60;49.40;;;;;;4879070;29;19916;-66
2022/06/08 11:33:43;;;;;;;;;;;25.60;48.90;;;;;;4878975;29;19912;-65
2022/06/08 11:36:10;;;;;;;;;;;25.70;48.20;;;;;;4879310;29;19912;-64
2022/06/08 11:38:35;;;;;;;;;;;25.70;46.70;;;;;;4879537;29;19960;-67
2022/06/08 11:41:21;;;;;;;;;;;25.70;46.10;;;;;;4879219;29;19912;-63
2022/06/08 11:43:47;;;;;;;;;;;25.70;46.40;;;;;;4878778;29;19958;-66
2022/06/08 11:46:33;;;;;;;;;;;25.70;47.00;;;;;;4879306;29;20268;-63
2022/06/08 11:48:59;;;;;;;;;;;25.60;45.00;;;;;;4879391;29;20406;-61
2022/06/08 11:51:34;;;;;;;;;;;25.30;45.30;;;;;;4879026;29;19971;-64
2022/06/08 11:54:03;;;;;;;;;;;25.40;46.30;;;;;;4879148;29;19922;-63
2022/06/08 11:56:37;;;;;;;;;;;25.50;46.10;;;;;;4878852;29;19962;-62
2022/06/08 11:59:05;;;;;;;;;;;25.90;46.80;;;;;;4879214;29;20010;-62
2022/06/08 12:01:38;;;;;;;;;;;26.00;45.60;;;;;;4879192;29;19915;-65
2022/06/08 12:04:11;;;;;;;;;;;26.10;45.00;;;;;;4879541;29;19935;-63
2022/06/08 12:06:38;;;;;;;;;;;26.00;43.70;;;;;;4879170;29;19960;-62
2022/06/08 12:09:10;;;;;;;;;;;26.10;44.10;;;;;;4879279;29;19990;-64
2022/06/08 12:11:39;;;;;;;;;;;25.80;43.60;;;;;;4879209;29;19912;-65
2022/06/08 12:14:23;;;;;;;;;;;25.60;44.70;;;;;;4879310;29;20016;-63
2022/06/08 12:16:53;;;;;;;;;;;25.70;45.40;;;;;;4879113;29;19999;-65
2022/06/08 12:19:19;;;;;;;;;;;25.70;44.40;;;;;;4878980;29;19912;-62
2022/06/08 12:21:46;;;;;;;;;;;25.70;45.00;;;;;;4879110;29;19915;-65
2022/06/08 12:24:11;;;;;;;;;;;25.70;44.90;;;;;;4878789;29;19912;-67
2022/06/08 12:26:43;;;;;;;;;;;26.00;44.70;;;;;;4878631;29;20010;-69
2022/06/08 12:29:32;;;;;;;;;;;26.10;45.00;;;;;;4878815;29;19968;-66
2022/06/08 12:31:59;;;;;;;;;;;26.10;44.10;;;;;;4868406;29;19921;-65
2022/06/08 12:34:30;;;;;;;;;;;26.20;43.70;;;;;;4878389;29;19950;-70
2022/06/08 12:36:56;;;;;;;;;;;26.10;43.70;;;;;;4878176;29;20021;-64
2022/06/08 12:39:27;;;;;;;;;;;26.10;43.80;;;;;;4878408;29;19928;-63
2022/06/08 12:41:54;;;;;;;;;;;26.30;43.70;;;;;;4878447;29;19912;-62
2022/06/08 12:44:25;;;;;;;;;;;26.40;42.50;;;;;;4878241;29;19923;-64
2022/06/08 12:46:56;;;;;;;;;;;26.30;42.10;;;;;;4881402;29;19923;-67
2022/06/08 12:49:23;;;;;;;;;;;26.40;42.80;;;;;;4878706;29;20018;-69
2022/06/08 12:51:53;;;;;;;;;;;26.40;43.70;;;;;;4879146;29;20007;-62
2022/06/08 12:54:22;;;;;;;;;;;26.40;44.20;;;;;;4879258;29;19959;-64
2022/06/08 12:56:49;;;;;;;;;;;26.30;44.20;;;;;;4879162;29;19912;-66
2022/06/08 12:59:15;;;;;;;;;;;26.20;44.00;;;;;;4886689;29;19924;-63
2022/06/08 13:01:41;;;;;;;;;;;26.20;44.70;;;;;;4871752;29;19920;-61
2022/06/08 13:04:07;;;;;;;;;;;26.20;45.70;;;;;;4878671;29;20313;-63
2022/06/08 13:06:32;;;;;;;;;;;26.10;44.60;;;;;;4889039;29;19918;-64
2022/06/08 13:08:58;;;;;;;;;;;26.00;44.10;;;;;;4889552;29;19924;-63
2022/06/08 13:11:25;;;;;;;;;;;26.00;45.20;;;;;;4891489;29;19912;-66
2022/06/08 13:13:51;;;;;;;;;;;26.00;44.40;;;;;;4881959;29;19916;-68
2022/06/08 13:16:22;;;;;;;;;;;26.00;44.80;;;;;;4886995;29;20379;-68
2022/06/08 13:18:48;;;;;;;;;;;26.00;45.00;;;;;;4883334;29;19916;-65
2022/06/08 13:21:14;;;;;;;;;;;26.00;44.20;;;;;;4882474;29;19969;-66
2022/06/08 13:23:40;;;;;;;;;;;25.90;44.30;;;;;;4882076;29;19916;-67
2022/06/08 13:26:10;;;;;;;;;;;25.90;44.20;;;;;;4882438;29;19912;-64
2022/06/08 13:28:37;;;;;;;;;;;26.00;44.90;;;;;;4882348;29;19971;-67
2022/06/08 13:31:05;;;;;;;;;;;26.00;44.90;;;;;;4881899;29;19919;-64
2022/06/08 13:36:16;;;;;;;;;;;26.00;44.90;;;;;;4882494;29;19935;-68
2022/06/08 13:38:41;;;;;;;;;;;26.10;45.10;;;;;;4882030;29;20014;-66
2022/06/08 13:41:08;;;;;;;;;;;26.00;45.10;;;;;;4881954;29;19998;-62
2022/06/08 13:43:33;;;;;;;;;;;26.00;45.30;;;;;;4881903;29;19912;-63
2022/06/08 13:45:59;;;;;;;;;;;26.00;45.30;;;;;;4881922;29;19911;-65
2022/06/08 13:48:24;;;;;;;;;;;26.00;44.70;;;;;;4881685;29;20059;-64
2022/06/08 13:50:51;;;;;;;;;;;26.00;45.10;;;;;;4881803;29;19938;-62
2022/06/08 13:53:19;;;;;;;;;;;26.00;44.00;;;;;;4882063;29;19919;-64
2022/06/08 13:55:46;;;;;;;;;;;26.00;44.50;;;;;;4881738;29;19944;-62
2022/06/08 13:58:13;;;;;;;;;;;26.00;44.20;;;;;;4881006;29;19915;-62
2022/06/08 14:00:41;;;;;;;;;;;25.90;43.50;;;;;;4880780;29;20391;-61
2022/06/08 14:03:11;;;;;;;;;;;25.90;44.10;;;;;;4891521;29;19939;-61
2022/06/08 14:13:56;;;;;;;;;;;25.90;44.80;;;;;;4887644;29;19998;-60
2022/06/08 14:16:22;;;;;;;;;;;25.90;44.80;;;;;;4886084;29;19998;-62
2022/06/08 14:18:50;;;;;;;;;;;25.90;44.30;;;;;;4886114;29;20269;-60
2022/06/08 14:21:16;;;;;;;;;;;26.00;43.70;;;;;;4884150;29;19987;-61
2022/06/08 14:23:43;;;;;;;;;;;25.90;43.40;;;;;;4880711;29;20391;-62
2022/06/08 14:26:13;;;;;;;;;;;25.90;43.60;;;;;;4880582;29;19912;-63
2022/06/08 14:28:39;;;;;;;;;;;25.90;43.40;;;;;;4880551;29;19972;-60
2022/06/08 14:31:06;;;;;;;;;;;26.00;43.80;;;;;;4880501;29;20004;-61
2022/06/08 14:33:33;;;;;;;;;;;26.00;43.40;;;;;;4880573;29;20404;-62
2022/06/08 14:36:02;;;;;;;;;;;26.00;44.00;;;;;;4880586;29;19934;-59
2022/06/08 14:38:32;;;;;;;;;;;26.00;44.00;;;;;;4877969;29;20389;-60
2022/06/08 14:40:59;;;;;;;;;;;26.00;44.00;;;;;;4894188;29;19960;-61
2022/06/08 14:43:24;;;;;;;;;;;26.00;43.70;;;;;;4895110;29;20003;-61
2022/06/08 14:45:50;;;;;;;;;;;26.00;43.90;;;;;;4890833;29;20015;-61
2022/06/08 14:48:16;;;;;;;;;;;26.00;43.40;;;;;;4880257;29;19915;-61
2022/06/08 14:50:44;;;;;;;;;;;26.10;44.00;;;;;;4880630;29;19980;-61